createdAt,value
2018-11-05T00:00:47.999Z,11.65
2018-11-05T00:03:16.092Z,10.82
2018-11-05T00:05:44.140Z,14.25
2018-11-05T00:08:12.165Z,12.53
2018-11-05T00:10:40.193Z,12.93
2018-11-05T00:13:08.253Z,8.33
2018-11-05T00:15:36.309Z,12.07
2018-11-05T00:18:04.814Z,11.57
2018-11-05T00:20:32.845Z,10.53
2018-11-05T00:23:00.912Z,11.03
2018-11-05T00:25:28.956Z,11.70
2018-11-05T00:27:57.033Z,13.25
2018-11-05T00:30:25.077Z,9.13
2018-11-05T00:32:53.100Z,10.15
2018-11-05T00:35:21.127Z,10.60
2018-11-05T00:37:49.155Z,8.33
2018-11-05T00:40:17.206Z,10.75
2018-11-05T00:42:45.828Z,7.30
2018-11-05T00:45:14.433Z,13.80
2018-11-05T00:47:43.126Z,11.75
2018-11-05T00:50:13.181Z,9.23
2018-11-05T00:52:41.485Z,12.70
2018-11-05T00:55:10.356Z,10.03
2018-11-05T00:57:38.424Z,10.15
2018-11-05T01:00:09.125Z,9.73
2018-11-05T01:02:37.297Z,20.52
2018-11-05T01:05:06.530Z,8.80
2018-11-05T01:07:34.582Z,11.15
2018-11-05T01:10:02.647Z,12.65
2018-11-05T01:12:30.669Z,8.88
2018-11-05T01:14:58.817Z,7.30
2018-11-05T01:17:26.845Z,9.75
2018-11-05T01:19:54.875Z,10.93
2018-11-05T01:22:22.940Z,14.58
2018-11-05T01:24:50.964Z,13.43
2018-11-05T01:27:19.000Z,15.32
2018-11-05T01:29:47.032Z,12.58
2018-11-05T01:32:15.078Z,13.00
2018-11-05T01:34:43.120Z,8.38
2018-11-05T01:37:11.249Z,9.35
2018-11-05T01:39:39.553Z,11.97
2018-11-05T01:42:07.613Z,8.70
2018-11-05T01:44:35.660Z,12.75
2018-11-05T01:47:03.724Z,9.20
2018-11-05T01:49:31.780Z,11.73
2018-11-05T01:51:59.865Z,11.70
2018-11-05T01:54:28.176Z,11.22
2018-11-05T01:56:56.252Z,8.85
2018-11-05T01:59:24.316Z,9.15
2018-11-05T02:01:52.376Z,11.95
2018-11-05T02:04:20.428Z,12.28
2018-11-05T02:06:48.704Z,7.58
2018-11-05T02:09:16.783Z,11.22
2018-11-05T02:11:44.869Z,10.35
2018-11-05T02:14:13.121Z,16.90
2018-11-05T02:16:41.357Z,10.68
2018-11-05T02:19:09.411Z,12.93
2018-11-05T02:21:37.438Z,10.98
2018-11-05T02:24:05.477Z,11.53
2018-11-05T02:26:33.525Z,11.70
2018-11-05T02:29:01.568Z,13.80
2018-11-05T02:31:29.610Z,9.60
2018-11-05T02:33:58.071Z,7.78
2018-11-05T02:36:26.068Z,8.83
2018-11-05T02:38:54.117Z,10.23
2018-11-05T02:41:22.162Z,11.20
2018-11-05T02:43:50.201Z,12.68
2018-11-05T02:46:18.236Z,9.73
2018-11-05T02:48:46.293Z,14.10
2018-11-05T02:51:14.328Z,11.70
2018-11-05T02:53:42.593Z,14.58
2018-11-05T02:56:10.634Z,9.83
2018-11-05T02:58:38.669Z,8.73
2018-11-05T03:01:07.052Z,27.58
2018-11-05T03:03:35.080Z,9.18
2018-11-05T03:06:03.116Z,10.10
2018-11-05T03:08:31.580Z,11.38
2018-11-05T03:10:59.618Z,11.93
2018-11-05T03:13:27.668Z,11.10
2018-11-05T03:15:55.733Z,11.97
2018-11-05T03:18:23.789Z,10.43
2018-11-05T03:20:51.850Z,9.43
2018-11-05T03:23:20.187Z,8.20
2018-11-05T03:25:48.236Z,11.53
2018-11-05T03:28:16.304Z,9.68
2018-11-05T03:30:44.360Z,12.23
2018-11-05T03:33:12.424Z,11.12
2018-11-05T03:35:40.504Z,10.00
2018-11-05T03:38:08.561Z,11.38
2018-11-05T03:40:36.648Z,10.40
2018-11-05T03:43:04.758Z,11.22
2018-11-05T03:45:32.823Z,9.03
2018-11-05T03:48:00.868Z,10.20
2018-11-05T03:50:28.927Z,14.68
2018-11-05T03:52:56.993Z,9.28
2018-11-05T03:55:25.076Z,10.10
2018-11-05T03:57:53.111Z,16.67
2018-11-05T04:00:21.158Z,11.45
2018-11-05T04:02:49.231Z,8.15
2018-11-05T04:05:17.317Z,20.60
2018-11-05T04:07:45.413Z,9.58
2018-11-05T04:10:14.086Z,11.22
2018-11-05T04:12:42.292Z,11.12
2018-11-05T04:15:10.931Z,10.95
2018-11-05T04:17:38.928Z,11.95
2018-11-05T04:20:09.590Z,10.48
2018-11-05T04:22:37.653Z,11.43
2018-11-05T04:25:05.732Z,15.68
2018-11-05T04:27:33.836Z,13.88
2018-11-05T04:30:01.867Z,9.15
2018-11-05T04:32:29.940Z,11.78
2018-11-05T04:34:58.005Z,12.65
2018-11-05T04:37:26.078Z,9.28
2018-11-05T04:39:54.165Z,13.58
2018-11-05T04:42:22.242Z,15.88
2018-11-05T04:44:50.414Z,20.75
2018-11-05T04:47:18.468Z,12.88
2018-11-05T04:49:46.552Z,10.93
2018-11-05T04:52:14.639Z,14.18
2018-11-05T04:54:42.701Z,12.23
2018-11-05T04:57:10.776Z,12.90
2018-11-05T04:59:38.842Z,8.43
2018-11-05T05:02:06.917Z,12.60
2018-11-05T05:04:34.968Z,11.48
2018-11-05T05:07:03.077Z,14.33
2018-11-05T05:09:31.153Z,10.82
2018-11-05T05:11:59.225Z,10.80
2018-11-05T05:14:27.309Z,15.55
2018-11-05T05:16:55.378Z,9.28
2018-11-05T05:19:23.452Z,14.53
2018-11-05T05:21:51.522Z,12.58
2018-11-05T05:24:19.995Z,12.98
2018-11-05T05:26:48.154Z,18.10
2018-11-05T05:29:16.219Z,11.40
2018-11-05T05:31:44.289Z,14.60
2018-11-05T05:34:12.373Z,11.45
2018-11-05T05:36:40.464Z,16.97
2018-11-05T05:39:09.425Z,8.98
2018-11-05T05:41:37.506Z,13.85
2018-11-05T05:44:05.563Z,13.43
2018-11-05T05:46:33.653Z,16.05
2018-11-05T05:49:01.720Z,16.20
2018-11-05T05:51:29.793Z,13.38
2018-11-05T05:53:57.854Z,20.43
2018-11-05T05:56:25.918Z,14.45
2018-11-05T05:58:53.976Z,19.65
2018-11-05T06:01:22.081Z,13.13
2018-11-05T06:03:50.273Z,13.90
2018-11-05T06:06:18.406Z,15.90
2018-11-05T06:08:46.405Z,11.10
2018-11-05T06:11:14.472Z,10.58
2018-11-05T06:13:42.523Z,11.53
2018-11-05T06:16:10.630Z,11.57
2018-11-05T06:18:38.692Z,14.55
2018-11-05T06:21:06.763Z,12.80
2018-11-05T06:23:34.821Z,11.88
2018-11-05T06:26:02.893Z,11.40
2018-11-05T06:28:30.971Z,14.87
2018-11-05T06:30:59.033Z,14.87
2018-11-05T06:33:27.106Z,14.40
2018-11-05T06:35:55.185Z,15.68
2018-11-05T06:38:23.259Z,13.05
2018-11-05T06:40:51.312Z,17.77
2018-11-05T06:43:19.389Z,13.15
2018-11-05T06:45:47.458Z,16.40
2018-11-05T06:48:15.529Z,12.47
2018-11-05T06:50:43.584Z,12.05
2018-11-05T06:53:11.656Z,13.85
2018-11-05T06:55:39.716Z,13.88
2018-11-05T06:58:07.785Z,11.53
2018-11-05T07:00:35.861Z,11.73
2018-11-05T07:03:03.938Z,13.78
2018-11-05T07:05:32.007Z,15.90
2018-11-05T07:08:00.079Z,14.07
2018-11-05T07:10:28.174Z,13.85
2018-11-05T07:12:56.244Z,10.55
2018-11-05T07:15:24.339Z,20.35
2018-11-05T07:17:52.424Z,17.45
2018-11-05T07:20:21.437Z,15.70
2018-11-05T07:22:50.329Z,19.40
2018-11-05T07:25:18.417Z,15.08
2018-11-05T07:27:46.536Z,15.20
2018-11-05T07:30:17.541Z,14.65
2018-11-05T07:32:46.174Z,13.43
2018-11-05T07:35:14.941Z,11.97
2018-11-05T07:37:43.336Z,15.15
2018-11-05T07:40:12.757Z,17.65
2018-11-05T07:42:41.153Z,13.95
2018-11-05T07:45:11.692Z,13.83
2018-11-05T07:47:39.777Z,18.52
2018-11-05T07:50:09.667Z,13.70
2018-11-05T07:52:37.788Z,15.10
2018-11-05T07:55:07.099Z,19.50
2018-11-05T07:57:35.193Z,19.90
2018-11-05T08:00:04.796Z,19.75
2018-11-05T08:02:32.994Z,17.27
2018-11-05T08:05:01.041Z,14.25
2018-11-05T08:07:29.120Z,20.35
2018-11-05T08:09:57.212Z,16.80
2018-11-05T08:12:25.300Z,14.47
2018-11-05T08:14:53.405Z,24.75
2018-11-05T08:17:21.497Z,17.00
2018-11-05T08:19:49.586Z,17.73
2018-11-05T08:22:17.657Z,20.77
2018-11-05T08:24:45.776Z,22.98
2018-11-05T08:27:13.861Z,21.23
2018-11-05T08:29:41.968Z,22.55
2018-11-05T08:32:10.045Z,17.20
2018-11-05T08:34:38.141Z,14.20
2018-11-05T08:37:06.217Z,26.87
2018-11-05T08:39:34.304Z,22.22
2018-11-05T08:42:02.388Z,24.15
2018-11-05T08:44:30.476Z,19.60
2018-11-05T08:46:58.592Z,22.52
2018-11-05T08:49:26.644Z,21.68
2018-11-05T08:51:54.825Z,25.08
2018-11-05T08:54:22.809Z,24.90
2018-11-05T08:56:50.906Z,24.25
2018-11-05T08:59:19.000Z,24.07
2018-11-05T09:01:47.093Z,25.48
2018-11-05T09:04:15.196Z,21.25
2018-11-05T09:06:43.276Z,17.87
2018-11-05T09:09:11.377Z,19.57
2018-11-05T09:11:39.711Z,17.00
2018-11-05T09:14:07.562Z,15.63
2018-11-05T09:16:35.620Z,22.07
2018-11-05T09:19:04.818Z,25.27
2018-11-05T09:21:32.881Z,21.93
2018-11-05T09:24:00.995Z,18.35
2018-11-05T09:26:29.029Z,18.80
2018-11-05T09:28:57.121Z,21.95
2018-11-05T09:31:25.185Z,21.65
2018-11-05T09:33:53.240Z,21.07
2018-11-05T09:36:21.321Z,17.67
2018-11-05T09:38:49.512Z,24.20
2018-11-05T09:41:17.584Z,27.13
2018-11-05T09:43:45.657Z,26.05
2018-11-05T09:46:13.732Z,15.45
2018-11-05T09:48:41.813Z,23.73
2018-11-05T09:51:09.888Z,21.07
2018-11-05T09:53:37.948Z,20.92
2018-11-05T09:56:06.021Z,23.35
2018-11-05T09:58:34.085Z,22.35
2018-11-05T10:01:02.158Z,20.05
2018-11-05T10:03:30.511Z,30.70
2018-11-05T10:05:58.288Z,21.93
2018-11-05T10:08:26.353Z,21.62
2018-11-05T10:10:54.447Z,26.07
2018-11-05T10:13:22.480Z,22.00
2018-11-05T10:15:50.574Z,19.85
2018-11-05T10:18:18.657Z,19.50
2018-11-05T10:20:46.771Z,21.15
2018-11-05T10:23:14.864Z,24.50
2018-11-05T10:25:42.963Z,15.10
2018-11-05T10:28:11.053Z,20.62
2018-11-05T10:30:39.137Z,22.00
2018-11-05T10:33:07.259Z,25.52
2018-11-05T10:35:40.817Z,23.92
2018-11-05T10:38:08.914Z,22.93
2018-11-05T10:40:37.005Z,27.02
2018-11-05T10:43:05.933Z,17.35
2018-11-05T10:45:34.017Z,21.17
2018-11-05T10:48:02.104Z,30.85
2018-11-05T10:50:30.270Z,20.08
2018-11-05T10:52:58.270Z,18.35
2018-11-05T10:55:26.361Z,19.30
2018-11-05T10:57:54.500Z,17.50
2018-11-05T11:00:27.812Z,19.62
2018-11-05T11:03:01.468Z,18.37
2018-11-05T11:05:30.419Z,15.83
2018-11-05T11:07:59.324Z,18.55
2018-11-05T11:10:28.329Z,13.58
2018-11-05T11:12:56.621Z,20.35
2018-11-05T11:15:24.921Z,22.90
2018-11-05T11:17:53.099Z,26.90
2018-11-05T11:20:21.188Z,17.35
2018-11-05T11:22:49.293Z,23.67
2018-11-05T11:25:17.380Z,23.15
2018-11-05T11:27:45.510Z,18.85
2018-11-05T11:30:14.544Z,21.57
2018-11-05T11:32:43.216Z,19.87
2018-11-05T11:35:11.933Z,17.90
2018-11-05T11:37:40.439Z,19.82
2018-11-05T11:40:12.469Z,19.37
2018-11-05T11:42:41.422Z,25.08
2018-11-05T11:45:10.316Z,23.87
2018-11-05T11:47:38.512Z,20.92
2018-11-05T11:50:08.396Z,22.30
2018-11-05T11:52:36.608Z,19.05
2018-11-05T11:55:05.826Z,18.40
2018-11-05T11:57:33.893Z,20.85
2018-11-05T12:00:02.033Z,22.27
2018-11-05T12:02:30.166Z,20.75
2018-11-05T12:04:58.343Z,21.07
2018-11-05T12:07:26.345Z,18.73
2018-11-05T12:09:54.428Z,18.45
2018-11-05T12:12:22.532Z,23.32
2018-11-05T12:14:50.751Z,17.92
2018-11-05T12:17:18.693Z,18.50
2018-11-05T12:19:46.788Z,20.43
2018-11-05T12:22:14.872Z,19.00
2018-11-05T12:24:42.978Z,25.48
2018-11-05T12:27:11.037Z,14.73
2018-11-05T12:29:39.149Z,16.97
2018-11-05T12:32:07.247Z,21.62
2018-11-05T12:34:35.503Z,19.95
2018-11-05T12:37:03.620Z,20.43
2018-11-05T12:39:31.709Z,20.95
2018-11-05T12:41:59.788Z,18.02
2018-11-05T12:44:27.949Z,18.45
2018-11-05T12:46:55.973Z,21.85
2018-11-05T12:49:24.083Z,21.10
2018-11-05T12:51:52.161Z,22.70
2018-11-05T12:54:20.249Z,20.55
2018-11-05T12:56:48.321Z,18.12
2018-11-05T12:59:16.412Z,20.85
2018-11-05T13:01:44.519Z,16.00
2018-11-05T13:04:12.602Z,21.80
2018-11-05T13:06:40.682Z,19.17
2018-11-05T13:09:09.409Z,16.73
2018-11-05T13:11:37.496Z,15.53
2018-11-05T13:14:05.609Z,21.57
2018-11-05T13:16:33.768Z,19.10
2018-11-05T13:19:01.881Z,20.50
2018-11-05T13:21:29.996Z,17.85
2018-11-05T13:23:58.117Z,19.60
2018-11-05T13:26:26.257Z,17.65
2018-11-05T13:28:54.353Z,16.73
2018-11-05T13:31:22.436Z,17.07
2018-11-05T13:33:50.530Z,14.55
2018-11-05T13:36:18.626Z,17.87
2018-11-05T13:38:46.774Z,23.85
2018-11-05T13:41:14.843Z,19.40
2018-11-05T13:43:42.937Z,20.43
2018-11-05T13:46:11.405Z,18.07
2018-11-05T13:48:39.658Z,16.50
2018-11-05T13:51:07.202Z,25.65
2018-11-05T13:53:35.276Z,16.70
2018-11-05T13:56:03.365Z,13.40
2018-11-05T13:58:31.455Z,16.45
2018-11-05T14:00:59.532Z,21.68
2018-11-05T14:03:27.620Z,19.32
2018-11-05T14:05:55.832Z,21.60
2018-11-05T14:08:23.825Z,24.15
2018-11-05T14:10:51.904Z,19.85
2018-11-05T14:13:19.980Z,22.13
2018-11-05T14:15:48.085Z,19.60
2018-11-05T14:18:16.213Z,23.55
2018-11-05T14:20:44.274Z,22.75
2018-11-05T14:23:12.375Z,22.20
2018-11-05T14:25:40.622Z,22.67
2018-11-05T14:28:08.968Z,17.17
2018-11-05T14:30:36.662Z,28.00
2018-11-05T14:33:04.737Z,19.20
2018-11-05T14:35:32.833Z,25.55
2018-11-05T14:38:00.945Z,27.58
2018-11-05T14:40:29.005Z,24.10
2018-11-05T14:42:57.146Z,22.90
2018-11-05T14:45:25.184Z,22.70
2018-11-05T14:47:53.269Z,23.38
2018-11-05T14:50:22.588Z,19.75
2018-11-05T14:52:50.600Z,14.00
2018-11-05T14:55:19.719Z,21.68
2018-11-05T14:57:49.133Z,21.20
2018-11-05T15:00:21.217Z,23.67
2018-11-05T15:02:49.962Z,20.32
2018-11-05T15:05:18.106Z,21.50
2018-11-05T15:07:47.010Z,21.80
2018-11-05T15:10:16.424Z,25.85
2018-11-05T15:12:44.703Z,18.85
2018-11-05T15:15:13.500Z,22.65
2018-11-05T15:17:42.459Z,22.10
2018-11-05T15:20:12.701Z,18.27
2018-11-05T15:22:40.843Z,24.82
2018-11-05T15:25:09.020Z,26.85
2018-11-05T15:27:37.925Z,21.17
2018-11-05T15:30:08.522Z,17.17
2018-11-05T15:32:36.617Z,20.70
2018-11-05T15:35:05.005Z,20.75
2018-11-05T15:37:33.094Z,20.37
2018-11-05T15:40:01.169Z,19.60
2018-11-05T15:42:29.370Z,22.45
2018-11-05T15:44:57.444Z,27.48
2018-11-05T15:47:25.540Z,18.73
2018-11-05T15:49:53.625Z,17.80
2018-11-05T15:52:22.205Z,22.62
2018-11-05T15:54:49.810Z,16.90
2018-11-05T15:57:17.896Z,18.52
2018-11-05T15:59:45.980Z,27.52
2018-11-05T16:02:14.194Z,24.23
2018-11-05T16:04:43.201Z,23.47
2018-11-05T16:07:11.284Z,16.07
2018-11-05T16:09:40.281Z,21.35
2018-11-05T16:12:08.380Z,24.25
2018-11-05T16:14:36.821Z,25.90
2018-11-05T16:17:04.884Z,26.75
2018-11-05T16:19:32.952Z,21.85
2018-11-05T16:22:01.036Z,16.60
2018-11-05T16:24:29.151Z,18.92
2018-11-05T16:26:57.797Z,15.90
2018-11-05T16:29:25.888Z,20.62
2018-11-05T16:31:54.078Z,18.02
2018-11-05T16:34:22.141Z,20.27
2018-11-05T16:36:50.228Z,22.20
2018-11-05T16:39:18.304Z,19.02
2018-11-05T16:41:46.477Z,25.02
2018-11-05T16:44:14.445Z,26.23
2018-11-05T16:46:42.508Z,21.75
2018-11-05T16:49:10.576Z,34.20
2018-11-05T16:51:38.660Z,20.12
2018-11-05T16:54:06.932Z,21.93
2018-11-05T16:56:35.632Z,21.77
2018-11-05T16:59:04.150Z,16.32
2018-11-05T17:01:32.469Z,18.65
2018-11-05T17:04:00.300Z,18.60
2018-11-05T17:06:28.368Z,19.15
2018-11-05T17:08:56.448Z,20.17
2018-11-05T17:11:24.509Z,15.00
2018-11-05T17:13:52.605Z,17.60
2018-11-05T17:16:20.649Z,24.12
2018-11-05T17:18:48.784Z,14.73
2018-11-05T17:21:16.853Z,20.90
2018-11-05T17:23:44.926Z,18.17
2018-11-05T17:26:13.087Z,14.75
2018-11-05T17:28:41.113Z,27.48
2018-11-05T17:31:09.340Z,22.40
2018-11-05T17:33:37.468Z,22.32
2018-11-05T17:36:05.496Z,21.90
2018-11-05T17:38:33.565Z,20.17
2018-11-05T17:41:01.636Z,20.37
2018-11-05T17:43:29.709Z,17.40
2018-11-05T17:45:57.769Z,18.85
2018-11-05T17:48:25.837Z,19.60
2018-11-05T17:50:53.927Z,17.95
2018-11-05T17:53:21.973Z,19.70
2018-11-05T17:55:50.085Z,17.65
2018-11-05T17:58:18.149Z,19.45
2018-11-05T18:00:46.228Z,25.80
2018-11-05T18:03:14.297Z,16.50
2018-11-05T18:05:42.365Z,17.87
2018-11-05T18:08:10.432Z,17.23
2018-11-05T18:10:38.492Z,24.95
2018-11-05T18:13:06.560Z,21.20
2018-11-05T18:15:34.729Z,17.15
2018-11-05T18:18:02.753Z,16.65
2018-11-05T18:20:30.834Z,15.00
2018-11-05T18:22:58.913Z,14.75
2018-11-05T18:25:27.005Z,14.70
2018-11-05T18:27:55.078Z,17.52
2018-11-05T18:30:23.172Z,18.55
2018-11-05T18:32:51.279Z,14.78
2018-11-05T18:35:19.365Z,16.40
2018-11-05T18:37:49.055Z,17.50
2018-11-05T18:40:17.152Z,18.92
2018-11-05T18:42:45.446Z,15.93
2018-11-05T18:45:13.773Z,16.07
2018-11-05T18:47:41.904Z,22.62
2018-11-05T18:50:11.847Z,19.92
2018-11-05T18:52:40.017Z,14.80
2018-11-05T18:55:09.432Z,13.62
2018-11-05T18:57:37.860Z,14.68
2018-11-05T19:00:25.364Z,27.95
2018-11-05T19:02:54.441Z,15.08
2018-11-05T19:05:23.490Z,17.90
2018-11-05T19:07:51.601Z,17.95
2018-11-05T19:10:19.700Z,21.00
2018-11-05T19:12:48.349Z,17.48
2018-11-05T19:15:16.730Z,19.65
2018-11-05T19:17:45.549Z,37.88
2018-11-05T19:20:13.656Z,11.65
2018-11-05T19:22:42.483Z,14.38
2018-11-05T19:25:11.844Z,17.75
2018-11-05T19:27:40.457Z,18.07
2018-11-05T19:30:13.171Z,17.87
2018-11-05T19:32:41.210Z,15.48
2018-11-05T19:35:10.125Z,12.90
2018-11-05T19:37:38.269Z,12.43
2018-11-05T19:40:07.512Z,12.73
2018-11-05T19:42:35.883Z,14.75
2018-11-05T19:45:04.047Z,18.87
2018-11-05T19:47:32.114Z,16.90
2018-11-05T19:50:00.192Z,12.28
2018-11-05T19:52:28.257Z,19.57
2018-11-05T19:54:56.345Z,12.07
2018-11-05T19:57:24.412Z,15.60
2018-11-05T19:59:52.477Z,17.20
2018-11-05T20:02:22.426Z,14.05
2018-11-05T20:04:50.431Z,13.10
2018-11-05T20:07:18.496Z,13.30
2018-11-05T20:09:46.553Z,20.65
2018-11-05T20:12:14.613Z,18.77
2018-11-05T20:14:42.696Z,26.65
2018-11-05T20:17:10.739Z,24.55
2018-11-05T20:19:39.665Z,23.50
2018-11-05T20:22:07.758Z,21.75
2018-11-05T20:24:35.797Z,18.98
2018-11-05T20:27:03.865Z,25.65
2018-11-05T20:29:32.046Z,18.50
2018-11-05T20:32:00.284Z,24.85
2018-11-05T20:34:28.332Z,19.17
2018-11-05T20:36:56.285Z,14.38
2018-11-05T20:39:24.341Z,23.40
2018-11-05T20:41:52.432Z,24.25
2018-11-05T20:44:20.505Z,17.48
2018-11-05T20:46:49.466Z,13.68
2018-11-05T20:49:17.688Z,16.62
2018-11-05T20:51:45.744Z,18.02
2018-11-05T20:54:13.982Z,16.65
2018-11-05T20:56:41.853Z,18.77
2018-11-05T20:59:10.029Z,11.65
2018-11-05T21:01:38.093Z,14.80
2018-11-05T21:04:06.152Z,15.30
2018-11-05T21:06:34.266Z,12.37
2018-11-05T21:09:02.455Z,13.10
2018-11-05T21:11:30.513Z,10.30
2018-11-05T21:13:58.572Z,12.70
2018-11-05T21:16:26.653Z,9.18
2018-11-05T21:18:54.749Z,15.50
2018-11-05T21:21:22.849Z,8.28
2018-11-05T21:23:50.997Z,10.28
2018-11-05T21:26:19.076Z,9.40
2018-11-05T21:28:47.163Z,13.58
2018-11-05T21:31:15.236Z,17.50
2018-11-05T21:33:43.589Z,11.78
2018-11-05T21:36:11.674Z,20.70
2018-11-05T21:38:39.736Z,15.18
2018-11-05T21:41:07.780Z,14.90
2018-11-05T21:43:35.868Z,19.50
2018-11-05T21:46:03.917Z,16.90
2018-11-05T21:48:31.977Z,16.00
2018-11-05T21:51:06.720Z,21.82
2018-11-05T21:53:34.821Z,24.72
2018-11-05T21:56:02.888Z,21.37
2018-11-05T21:58:37.625Z,23.05
2018-11-05T22:01:06.065Z,17.20
2018-11-05T22:03:34.191Z,25.72
2018-11-05T22:06:02.212Z,17.60
2018-11-05T22:08:30.268Z,18.37
2018-11-05T22:10:58.334Z,18.65
2018-11-05T22:13:26.403Z,15.88
2018-11-05T22:15:54.474Z,17.90
2018-11-05T22:18:22.552Z,20.60
2018-11-05T22:20:50.660Z,10.85
2018-11-05T22:23:18.745Z,17.23
2018-11-05T22:25:46.839Z,17.27
2018-11-05T22:28:14.922Z,22.90
2018-11-05T22:30:42.999Z,14.75
2018-11-05T22:33:11.097Z,17.10
2018-11-05T22:35:39.212Z,23.42
2018-11-05T22:38:07.296Z,19.45
2018-11-05T22:40:35.380Z,15.60
2018-11-05T22:43:03.414Z,17.98
2018-11-05T22:45:31.492Z,30.48
2018-11-05T22:47:59.565Z,29.82
2018-11-05T22:50:27.714Z,20.35
2018-11-05T22:52:55.725Z,24.45
2018-11-05T22:55:23.800Z,23.95
2018-11-05T22:57:51.880Z,16.30
2018-11-05T23:00:25.350Z,20.30
2018-11-05T23:02:58.833Z,19.37
2018-11-05T23:05:26.906Z,26.23
2018-11-05T23:07:55.834Z,14.50
2018-11-05T23:10:24.308Z,22.62
2018-11-05T23:12:52.384Z,18.40
2018-11-05T23:15:20.804Z,19.90
2018-11-05T23:17:49.169Z,18.95
2018-11-05T23:20:17.197Z,19.07
2018-11-05T23:22:45.285Z,26.57
2018-11-05T23:25:13.870Z,20.97
2018-11-05T23:27:41.957Z,23.05
2018-11-05T23:30:11.985Z,25.10
2018-11-05T23:32:40.580Z,25.12
2018-11-05T23:35:09.386Z,19.87
2018-11-05T23:37:38.491Z,18.10
2018-11-05T23:40:07.289Z,22.27
2018-11-05T23:42:35.679Z,20.70
2018-11-05T23:45:03.784Z,17.23
2018-11-05T23:47:31.861Z,30.05
2018-11-05T23:49:59.960Z,27.50
2018-11-05T23:52:28.065Z,27.58
2018-11-05T23:54:56.152Z,28.70
2018-11-05T23:57:24.240Z,24.07
2018-11-05T23:59:52.345Z,19.10
